Time;durP1;ratioP1;P1;durP2;ratioP2;P2;SDS_P1;SDS_P2;PMS_P1;PMS_P2;Temp;Humidity;BMP_temperature;BMP_pressure;BME280_temperature;BME280_humidity;BME280_pressure;Samples;Min_cycle;Max_cycle;Signal;HPM_P1;HPM_P2
2024/01/22 00:02:20;;;;;;;23.83;8.90;;;-1.40;99.90;;;;;;2602885;54;20823;31
2024/01/22 01:25:32;;;;;;;12.05;6.30;;;-1.10;99.90;;;;;;2882351;47;20441;31
2024/01/22 01:28:20;;;;;;;15.75;5.93;;;-1.10;99.90;;;;;;2601741;54;20050;31
2024/01/22 01:46:34;;;;;;;14.98;5.40;;;-0.90;99.90;;;;;;2602501;54;20026;31
2024/01/22 01:52:06;;;;;;;10.40;5.15;;;-0.80;99.90;;;;;;2603279;54;20026;31
2024/01/22 01:54:48;;;;;;;11.18;5.55;;;-0.80;99.90;;;;;;2603265;54;20034;31
2024/01/22 02:05:42;;;;;;;9.75;4.97;;;-0.80;99.90;;;;;;2602502;54;20245;31
2024/01/22 02:08:23;;;;;;;11.95;5.43;;;-0.80;99.90;;;;;;2602528;54;20804;31
2024/01/22 02:11:11;;;;;;;11.55;4.75;;;-0.90;99.90;;;;;;2602772;54;20847;31
2024/01/22 02:50:24;;;;;;;8.43;4.77;;;-1.00;99.90;;;;;;2611933;54;20019;31
2024/01/22 02:53:05;;;;;;;10.30;4.38;;;-1.10;99.90;;;;;;2603239;54;20789;31
2024/01/22 02:55:40;;;;;;;9.27;4.97;;;-1.10;99.90;;;;;;2621193;46;20027;31
2024/01/22 02:58:21;;;;;;;8.85;4.22;;;-1.10;99.90;;;;;;2621700;46;20880;31
2024/01/22 03:10:01;;;;;;;8.38;4.53;;;-1.10;99.90;;;;;;2603249;54;20885;31
2024/01/22 03:12:39;;;;;;;8.68;4.43;;;-1.10;99.90;;;;;;2603132;54;20083;31
2024/01/22 03:20:37;;;;;;;10.50;4.47;;;-1.10;99.90;;;;;;2621578;46;20031;31
2024/01/22 03:23:28;;;;;;;10.38;4.07;;;-1.10;99.90;;;;;;2602952;54;20034;31
2024/01/22 03:28:54;;;;;;;8.85;4.05;;;-1.00;99.90;;;;;;2701677;39;22281;31
2024/01/22 03:31:30;;;;;;;5.57;3.33;;;-0.90;99.90;;;;;;2603135;54;20033;31
2024/01/22 03:34:05;;;;;;;13.63;4.25;;;-0.70;99.90;;;;;;2621549;46;20090;31
2024/01/22 03:58:18;;;;;;;6.22;3.15;;;0.00;99.90;;;;;;2602173;54;20797;31
2024/01/22 04:07:02;;;;;;;6.93;2.90;;;0.60;99.90;;;;;;2602836;54;20850;31
2024/01/22 04:09:41;;;;;;;5.85;3.28;;;0.70;99.90;;;;;;2621247;46;20258;31
2024/01/22 04:12:16;;;;;;;9.25;3.55;;;0.90;99.90;;;;;;2621548;46;20117;31
2024/01/22 04:14:55;;;;;;;6.07;3.03;;;0.90;99.90;;;;;;2602591;54;20894;31
2024/01/22 04:17:30;;;;;;;9.70;3.20;;;1.00;99.90;;;;;;2602789;54;20069;31
2024/01/22 04:20:06;;;;;;;7.47;2.97;;;1.00;99.90;;;;;;2602822;54;20104;31
2024/01/22 04:22:44;;;;;;;9.82;3.55;;;1.10;99.90;;;;;;2621271;46;20030;31
2024/01/22 04:27:54;;;;;;;6.20;2.60;;;1.20;99.90;;;;;;2602755;54;20037;31
2024/01/22 04:30:32;;;;;;;6.03;2.70;;;1.20;99.90;;;;;;2621171;46;20033;31
2024/01/22 04:33:10;;;;;;;8.50;3.10;;;1.30;99.90;;;;;;2602798;54;20138;31
2024/01/22 04:35:45;;;;;;;8.20;3.50;;;1.30;99.90;;;;;;2602706;54;20096;31
2024/01/22 04:38:20;;;;;;;7.35;3.42;;;1.40;99.90;;;;;;2602990;54;20870;31
2024/01/22 04:40:55;;;;;;;7.57;3.08;;;1.40;99.90;;;;;;2602785;54;20755;31
2024/01/22 04:43:30;;;;;;;7.22;2.97;;;1.40;99.90;;;;;;2602836;54;20038;31
2024/01/22 04:46:08;;;;;;;8.25;3.50;;;1.50;99.90;;;;;;2602683;54;20030;31
2024/01/22 04:48:43;;;;;;;6.50;2.70;;;1.50;99.90;;;;;;2602882;54;20888;31
2024/01/22 04:51:18;;;;;;;5.32;3.00;;;1.60;99.90;;;;;;2602880;54;20069;31
2024/01/22 04:53:53;;;;;;;4.67;2.43;;;1.60;99.90;;;;;;2602896;54;20887;31
2024/01/22 04:56:26;;;;;;;5.32;2.50;;;1.60;99.90;;;;;;2701172;39;21324;31
2024/01/22 04:59:01;;;;;;;7.25;2.50;;;1.60;99.90;;;;;;2602607;54;20794;31
2024/01/22 05:01:40;;;;;;;7.07;2.58;;;1.60;99.90;;;;;;2602769;54;20880;31
2024/01/22 05:04:15;;;;;;;7.40;2.80;;;1.70;99.90;;;;;;2602415;54;20095;31
2024/01/22 05:06:51;;;;;;;6.50;3.05;;;1.80;99.90;;;;;;2621154;46;21195;31
2024/01/22 05:09:26;;;;;;;5.85;3.15;;;1.80;99.90;;;;;;2602711;54;20038;31
2024/01/22 05:12:01;;;;;;;4.20;2.50;;;1.80;99.90;;;;;;2602834;54;20106;31
2024/01/22 05:14:40;;;;;;;5.35;2.60;;;1.80;99.90;;;;;;2602701;54;20960;31
2024/01/22 05:17:18;;;;;;;10.00;2.67;;;1.80;99.90;;;;;;2602806;54;20038;31
2024/01/22 05:19:53;;;;;;;7.90;2.67;;;1.80;99.90;;;;;;2602430;54;20055;31
2024/01/22 05:22:29;;;;;;;6.32;4.50;;;1.80;99.90;;;;;;2620947;47;20127;31
2024/01/22 05:25:04;;;;;;;7.73;2.57;;;1.90;99.90;;;;;;2602509;54;20848;31
2024/01/22 05:27:40;;;;;;;7.10;2.20;;;1.80;99.90;;;;;;2602337;54;20244;31
2024/01/22 05:30:21;;;;;;;7.80;3.23;;;1.90;99.90;;;;;;2602797;54;20085;31
2024/01/22 05:33:00;;;;;;;6.95;2.60;;;1.80;99.90;;;;;;2602614;54;20051;31
2024/01/22 05:35:35;;;;;;;5.95;2.80;;;1.90;99.90;;;;;;2602698;54;20026;31
2024/01/22 05:38:10;;;;;;;9.33;2.93;;;1.80;99.90;;;;;;2602172;54;20073;31
2024/01/22 05:40:46;;;;;;;7.70;3.17;;;1.80;99.90;;;;;;2602612;54;20317;31
2024/01/22 05:43:20;;;;;;;7.80;3.15;;;1.80;99.90;;;;;;2602714;54;22335;31
2024/01/22 05:45:56;;;;;;;11.27;3.58;;;1.70;99.90;;;;;;2602469;54;20038;31
2024/01/22 05:48:36;;;;;;;7.35;2.92;;;1.70;99.90;;;;;;2602524;54;20096;31
2024/01/22 05:51:12;;;;;;;7.50;3.40;;;1.70;99.90;;;;;;2602580;54;20912;31
2024/01/22 05:53:47;;;;;;;8.50;3.53;;;1.70;99.90;;;;;;2602603;54;21206;31
2024/01/22 06:02:19;;;;;;;13.82;4.60;;;1.40;99.90;;;;;;2601833;47;20847;31
2024/01/22 06:05:54;;;;;;;28.95;7.63;;;1.30;99.90;;;;;;2621062;47;20030;31
2024/01/22 06:09:02;;;;;;;37.03;11.07;;;1.30;99.90;;;;;;2602462;54;20050;31
2024/01/22 06:12:03;;;;;;;41.67;11.70;;;1.20;99.90;;;;;;2602468;54;20882;31
2024/01/22 06:20:41;;;;;;;33.25;12.05;;;1.10;99.90;;;;;;2621278;46;20108;31
2024/01/22 06:29:18;;;;;;;10.10;3.83;;;1.00;99.90;;;;;;2603326;54;20869;31
2024/01/22 06:36:28;;;;;;;198.25;86.20;;;0.90;99.90;;;;;;2602991;54;20177;31
2024/01/22 06:39:42;;;;;;;26.00;15.47;;;0.90;99.90;;;;;;2607365;46;21014;31
2024/01/22 06:55:23;;;;;;;13.00;4.53;;;0.80;99.90;;;;;;2621634;46;20729;31
2024/01/22 07:02:06;;;;;;;12.05;4.65;;;0.80;99.90;;;;;;2603039;54;21004;31
2024/01/22 07:05:44;;;;;;;11.93;5.88;;;0.80;99.90;;;;;;2602942;54;20039;31
2024/01/22 07:14:42;;;;;;;12.82;4.90;;;0.90;99.90;;;;;;2603075;54;20078;31
2024/01/22 07:24:01;;;;;;;16.10;9.40;;;1.00;99.90;;;;;;2602872;54;20089;31
2024/01/22 07:29:58;;;;;;;31.70;19.70;;;1.10;99.90;;;;;;2603048;54;20022;31
2024/01/22 07:33:03;;;;;;;26.05;14.02;;;1.20;99.90;;;;;;2607303;46;21114;31
2024/01/22 07:36:00;;;;;;;19.55;12.70;;;1.20;99.90;;;;;;2621374;46;20026;31
2024/01/22 07:38:49;;;;;;;27.38;7.70;;;1.40;99.90;;;;;;2602970;54;20104;31
2024/01/22 07:41:52;;;;;;;10.40;4.80;;;1.50;99.90;;;;;;2603078;54;20029;31
2024/01/22 07:45:05;;;;;;;9.40;5.20;;;1.60;99.90;;;;;;2602875;54;20855;31
2024/01/22 07:48:14;;;;;;;13.50;5.70;;;1.70;99.90;;;;;;2602990;54;20874;31
2024/01/22 07:57:11;;;;;;;14.02;4.45;;;1.90;99.90;;;;;;2602284;54;20880;31
2024/01/22 07:59:51;;;;;;;9.52;3.63;;;2.00;99.90;;;;;;2602169;54;20913;31
2024/01/22 08:02:29;;;;;;;10.60;3.80;;;2.10;99.90;;;;;;2621753;46;20840;31
2024/01/22 08:05:12;;;;;;;9.77;3.80;;;2.20;99.90;;;;;;2603152;54;20026;31
2024/01/22 08:07:57;;;;;;;6.60;3.70;;;2.30;99.90;;;;;;2602877;54;20237;31
2024/01/22 08:10:36;;;;;;;6.97;3.30;;;2.40;99.90;;;;;;2621545;46;20816;31
2024/01/22 08:13:20;;;;;;;13.98;3.20;;;2.50;99.90;;;;;;2603002;54;22410;31
2024/01/22 08:16:03;;;;;;;7.88;3.50;;;2.70;99.90;;;;;;2609088;46;20038;31
2024/01/22 08:18:43;;;;;;;11.23;4.10;;;2.80;99.90;;;;;;2601948;54;20895;31
2024/01/22 08:24:35;;;;;;;8.00;3.03;;;2.90;99.90;;;;;;2602677;54;20023;31
2024/01/22 08:27:16;;;;;;;10.25;4.25;;;3.00;99.90;;;;;;2602712;54;20776;31
2024/01/22 08:33:03;;;;;;;8.97;3.70;;;3.20;99.90;;;;;;2602056;54;20026;31
2024/01/22 08:35:42;;;;;;;7.05;3.58;;;3.30;99.90;;;;;;2602658;54;20022;31
2024/01/22 08:41:26;;;;;;;10.13;4.77;;;3.50;99.90;;;;;;2602113;54;20895;31
2024/01/22 08:44:07;;;;;;;15.52;4.72;;;3.60;99.90;;;;;;2621143;46;20286;31
2024/01/22 08:52:52;;;;;;;14.10;5.43;;;3.70;99.90;;;;;;2601531;54;20030;31
2024/01/22 08:55:28;;;;;;;12.53;5.60;;;3.80;99.90;;;;;;2700548;39;21524;31
2024/01/22 08:58:04;;;;;;;17.47;5.80;;;3.80;99.90;;;;;;2602665;54;20027;31
2024/01/22 09:00:46;;;;;;;12.77;5.78;;;3.80;99.90;;;;;;2602613;54;21246;31
2024/01/22 09:03:29;;;;;;;12.07;7.07;;;3.80;99.90;;;;;;2602647;54;20022;31
2024/01/22 09:06:14;;;;;;;15.70;7.00;;;3.90;99.90;;;;;;2602742;54;20932;31
2024/01/22 09:11:40;;;;;;;7.97;5.03;;;3.90;99.90;;;;;;2602066;54;20026;31
2024/01/22 09:14:30;;;;;;;9.98;4.80;;;4.00;99.90;;;;;;2602419;54;20026;31
2024/01/22 09:17:15;;;;;;;11.05;5.03;;;4.00;99.90;;;;;;2602593;54;20778;31
2024/01/22 09:19:52;;;;;;;15.25;5.15;;;4.00;99.90;;;;;;2621121;47;20970;31
2024/01/22 09:22:33;;;;;;;14.00;6.37;;;4.10;99.90;;;;;;2620972;47;20879;31
2024/01/22 09:25:13;;;;;;;10.43;4.35;;;4.10;99.90;;;;;;2602750;54;20284;31
2024/01/22 09:27:52;;;;;;;14.27;4.65;;;4.20;99.90;;;;;;2602789;54;20077;31
2024/01/22 09:30:28;;;;;;;7.65;4.30;;;4.20;99.90;;;;;;2602533;54;20048;31
2024/01/22 09:33:11;;;;;;;8.00;4.13;;;4.20;99.90;;;;;;2602433;54;20893;31
2024/01/22 09:35:57;;;;;;;17.40;4.18;;;4.20;99.90;;;;;;2602470;54;20026;31
2024/01/22 09:38:34;;;;;;;13.15;5.20;;;4.30;99.90;;;;;;2602419;54;20104;31
2024/01/22 09:41:12;;;;;;;14.90;4.40;;;4.30;99.90;;;;;;2602541;54;20176;31
2024/01/22 09:43:52;;;;;;;10.57;4.57;;;4.30;99.90;;;;;;2602448;54;20060;31
2024/01/22 09:46:32;;;;;;;14.70;5.07;;;4.30;99.90;;;;;;2602845;54;21063;31
2024/01/22 09:49:07;;;;;;;11.55;4.53;;;4.30;99.90;;;;;;2602829;54;20884;31
2024/01/22 09:51:59;;;;;;;16.15;5.20;;;4.40;99.90;;;;;;2603207;54;20879;31
2024/01/22 09:54:40;;;;;;;14.25;5.28;;;4.40;99.90;;;;;;2602619;54;20793;31
2024/01/22 09:57:21;;;;;;;15.88;5.85;;;4.40;99.90;;;;;;2618654;46;20140;31
2024/01/22 10:00:02;;;;;;;18.05;5.90;;;4.40;99.90;;;;;;2622003;46;20856;31
2024/01/22 10:02:50;;;;;;;12.20;4.80;;;4.40;99.90;;;;;;2603482;54;20026;31
2024/01/22 10:05:28;;;;;;;11.00;5.22;;;4.50;99.90;;;;;;2621902;46;20859;31
2024/01/22 10:08:14;;;;;;;12.98;5.47;;;4.50;99.90;;;;;;2615534;46;20029;31
2024/01/22 10:10:58;;;;;;;14.45;5.38;;;4.50;99.90;;;;;;2603251;54;20033;31
2024/01/22 10:25:45;;;;;;;16.95;7.65;;;4.60;99.90;;;;;;2603206;54;20928;31
2024/01/22 10:28:46;;;;;;;13.25;6.25;;;4.60;99.90;;;;;;2603083;54;20980;31
2024/01/22 10:31:25;;;;;;;13.50;6.25;;;4.60;99.90;;;;;;2603234;54;20113;31
2024/01/22 10:40:28;;;;;;;11.15;5.50;;;4.70;99.90;;;;;;2621040;46;20018;31
2024/01/22 10:49:20;;;;;;;17.50;6.10;;;4.70;99.90;;;;;;2621109;46;20030;31
2024/01/22 10:51:59;;;;;;;15.65;8.13;;;4.60;99.90;;;;;;2603062;54;20733;31
2024/01/22 10:54:47;;;;;;;16.25;6.43;;;4.60;99.90;;;;;;2602952;54;20034;31
2024/01/22 10:57:28;;;;;;;16.90;6.40;;;4.70;99.90;;;;;;2603381;54;20050;31
2024/01/22 11:00:09;;;;;;;53.10;17.37;;;4.70;99.90;;;;;;2602764;54;20029;31
2024/01/22 11:02:56;;;;;;;28.80;10.27;;;4.60;99.90;;;;;;2602956;54;20238;31
2024/01/22 11:05:41;;;;;;;15.35;6.50;;;4.60;99.90;;;;;;2603250;54;20023;31
2024/01/22 11:10:55;;;;;;;19.65;6.60;;;4.60;99.90;;;;;;2603137;54;20029;31
2024/01/22 11:13:32;;;;;;;15.23;6.40;;;4.70;99.90;;;;;;2602980;54;20035;31
2024/01/22 11:16:09;;;;;;;19.45;8.02;;;4.70;99.90;;;;;;2602983;54;20910;31
2024/01/22 11:19:01;;;;;;;16.10;8.15;;;4.80;99.90;;;;;;2602951;54;20068;31
2024/01/22 11:21:47;;;;;;;33.75;13.63;;;4.80;99.90;;;;;;2602939;54;20857;31
2024/01/22 11:27:12;;;;;;;25.20;11.68;;;4.90;99.90;;;;;;2602214;54;20761;31
2024/01/22 11:29:59;;;;;;;17.35;8.13;;;5.00;99.90;;;;;;2621312;46;20026;31
2024/01/22 11:32:52;;;;;;;16.00;5.80;;;5.00;99.90;;;;;;2621377;46;20077;31
2024/01/22 11:38:56;;;;;;;9.70;3.50;;;5.10;99.90;;;;;;2602922;54;20119;31
2024/01/22 11:41:40;;;;;;;8.95;3.55;;;5.20;99.90;;;;;;2603004;54;22654;31
2024/01/22 11:44:26;;;;;;;7.35;3.70;;;5.30;99.90;;;;;;2602754;54;20114;31
2024/01/22 11:50:12;;;;;;;7.05;2.60;;;5.40;99.90;;;;;;2621440;46;20851;31
2024/01/22 11:52:54;;;;;;;5.10;2.50;;;5.40;99.90;;;;;;2621124;46;20884;31
2024/01/22 11:55:34;;;;;;;6.70;2.88;;;5.50;99.50;;;;;;2620859;46;21253;31
2024/01/22 11:58:18;;;;;;;6.97;3.15;;;5.50;99.90;;;;;;2621482;46;20057;31
2024/01/22 12:00:59;;;;;;;5.75;2.95;;;5.60;98.40;;;;;;2621334;46;20029;31
2024/01/22 12:03:44;;;;;;;7.28;2.60;;;5.60;99.10;;;;;;2602733;54;20027;31
2024/01/22 12:06:39;;;;;;;9.02;3.33;;;5.60;98.20;;;;;;2621356;46;20886;31
2024/01/22 12:09:23;;;;;;;6.10;2.78;;;5.70;97.70;;;;;;2602893;54;20867;31
2024/01/22 12:12:05;;;;;;;5.80;2.78;;;5.70;99.90;;;;;;2602626;54;20030;31
2024/01/22 12:14:41;;;;;;;5.50;2.65;;;5.70;99.90;;;;;;2603197;54;20870;31
2024/01/22 12:17:41;;;;;;;5.07;2.85;;;5.70;99.90;;;;;;2602757;54;20027;31
2024/01/22 12:20:35;;;;;;;4.57;2.35;;;5.70;99.90;;;;;;2602587;54;20914;31
2024/01/22 12:23:23;;;;;;;5.20;2.95;;;5.70;99.90;;;;;;2620920;46;20803;31
2024/01/22 12:26:01;;;;;;;6.38;3.10;;;5.70;99.90;;;;;;2620863;46;20029;31
2024/01/22 12:28:54;;;;;;;7.75;3.17;;;5.70;99.90;;;;;;2602919;54;20101;31
2024/01/22 12:31:37;;;;;;;7.60;3.42;;;5.70;99.90;;;;;;2602637;54;20750;31
2024/01/22 12:34:24;;;;;;;8.13;2.88;;;5.80;99.00;;;;;;2700605;39;21118;31
2024/01/22 12:37:15;;;;;;;8.90;3.17;;;5.80;97.40;;;;;;2602633;54;20029;31
2024/01/22 12:39:54;;;;;;;6.65;3.45;;;5.80;98.10;;;;;;2602630;54;21029;31
2024/01/22 12:42:33;;;;;;;6.83;3.37;;;5.90;97.60;;;;;;2602908;54;20863;31
2024/01/22 12:45:34;;;;;;;6.60;3.33;;;5.90;98.40;;;;;;2621494;46;20027;31
2024/01/22 12:48:25;;;;;;;7.65;3.25;;;5.90;98.60;;;;;;2602782;54;22485;31
2024/01/22 12:51:44;;;;;;;11.37;4.23;;;5.90;98.40;;;;;;2602769;54;20097;31
2024/01/22 12:54:30;;;;;;;7.00;3.50;;;5.90;99.00;;;;;;2602517;54;20234;31
2024/01/22 12:58:16;;;;;;;6.75;3.10;;;6.00;99.90;;;;;;2602760;47;20782;31
2024/01/22 13:10:50;;;;;;;12.13;6.87;;;5.90;99.90;;;;;;2602495;54;20897;31
2024/01/22 13:13:40;;;;;;;15.70;8.17;;;5.90;99.90;;;;;;2602564;54;21355;31
2024/01/22 13:16:32;;;;;;;14.95;9.07;;;5.80;99.90;;;;;;2604763;47;20049;31
2024/01/22 13:19:31;;;;;;;9.23;5.00;;;5.80;99.90;;;;;;2602814;54;20030;31
2024/01/22 13:25:07;;;;;;;14.35;5.70;;;5.70;99.90;;;;;;2603301;54;20030;31
2024/01/22 13:31:10;;;;;;;9.55;4.15;;;5.60;99.90;;;;;;2773809;31;22407;31
2024/01/22 13:37:38;;;;;;;10.35;4.10;;;5.50;99.90;;;;;;2603325;54;20026;31
2024/01/22 13:47:39;;;;;;;8.97;3.63;;;5.40;99.90;;;;;;2603154;54;20022;31
2024/01/22 13:53:29;;;;;;;7.80;3.45;;;5.30;99.90;;;;;;2603364;54;20893;31
2024/01/22 14:24:41;;;;;;;10.38;4.20;;;5.20;99.90;;;;;;2602682;54;20038;31
2024/01/22 14:31:33;;;;;;;7.93;3.45;;;5.10;99.90;;;;;;2620567;46;20297;31
2024/01/22 14:51:17;;;;;;;8.32;4.35;;;5.20;99.90;;;;;;2603033;54;20022;31
2024/01/22 14:57:55;;;;;;;8.45;3.85;;;5.30;99.90;;;;;;2602683;54;20034;31
2024/01/22 15:01:12;;;;;;;;;;;;;;;;;;;;;
2024/01/22 15:03:52;;;;;;;5.88;3.50;;;5.30;99.90;;;;;;2603081;54;22383;31
2024/01/22 15:06:55;;;;;;;9.02;4.53;;;5.30;99.90;;;;;;2621771;46;20988;31
2024/01/22 15:09:45;;;;;;;9.70;4.23;;;5.30;99.90;;;;;;2602988;54;20885;31
2024/01/22 15:15:34;;;;;;;11.07;4.40;;;5.30;99.90;;;;;;2602643;54;20186;31
2024/01/22 15:19:09;;;;;;;6.45;3.75;;;5.40;99.90;;;;;;2602730;54;20085;31
2024/01/22 15:24:51;;;;;;;9.65;3.58;;;5.40;99.90;;;;;;2603055;54;20030;31
2024/01/22 15:27:56;;;;;;;8.23;4.05;;;5.40;99.90;;;;;;2602751;54;20879;31
2024/01/22 15:33:18;;;;;;;8.43;3.47;;;5.50;99.90;;;;;;2602816;54;20038;31
2024/01/22 15:35:54;;;;;;;8.25;3.47;;;5.50;99.90;;;;;;2602800;54;20027;31
2024/01/22 15:38:36;;;;;;;7.30;3.70;;;5.50;99.90;;;;;;2602949;54;20053;31
2024/01/22 15:41:17;;;;;;;7.80;3.70;;;5.50;99.90;;;;;;2602816;54;20983;31
2024/01/22 15:43:54;;;;;;;7.88;3.88;;;5.50;99.90;;;;;;2602597;54;20739;31
2024/01/22 15:46:32;;;;;;;9.35;3.40;;;5.50;99.90;;;;;;2602847;54;20050;31
2024/01/22 15:49:08;;;;;;;8.35;4.00;;;5.50;99.90;;;;;;2602871;54;20037;31
2024/01/22 15:51:43;;;;;;;9.35;4.35;;;5.50;99.90;;;;;;2603244;54;20762;31
2024/01/22 15:54:21;;;;;;;7.85;3.80;;;5.50;99.90;;;;;;2602759;54;20104;31
2024/01/22 15:56:56;;;;;;;10.02;3.97;;;5.50;99.90;;;;;;2621314;46;20061;31
2024/01/22 15:59:31;;;;;;;8.60;3.97;;;5.50;99.90;;;;;;2621439;46;20049;31
2024/01/22 16:02:06;;;;;;;9.40;3.45;;;5.50;99.90;;;;;;2602849;54;20053;31
2024/01/22 16:04:41;;;;;;;7.87;3.60;;;5.50;99.90;;;;;;2602972;54;20030;31
2024/01/22 16:07:19;;;;;;;7.20;3.40;;;5.50;99.90;;;;;;2602869;54;21217;31
2024/01/22 16:09:59;;;;;;;12.85;4.50;;;5.50;99.90;;;;;;2602822;54;20785;31
2024/01/22 16:12:34;;;;;;;10.07;3.93;;;5.50;99.90;;;;;;2602993;54;20031;31
2024/01/22 16:15:10;;;;;;;6.00;3.53;;;5.50;99.90;;;;;;2621303;46;20026;31
2024/01/22 16:17:44;;;;;;;8.38;3.95;;;5.50;99.90;;;;;;2602948;54;20022;31
2024/01/22 16:20:21;;;;;;;7.82;3.67;;;5.50;99.90;;;;;;2602841;54;20046;31
2024/01/22 16:22:56;;;;;;;10.82;4.30;;;5.50;99.90;;;;;;2602793;54;20874;31
2024/01/22 16:25:35;;;;;;;10.73;4.65;;;5.50;99.90;;;;;;2621460;46;20872;31
2024/01/22 16:28:10;;;;;;;10.90;3.92;;;5.50;99.90;;;;;;2602870;54;20081;31
2024/01/22 16:30:45;;;;;;;6.22;3.92;;;5.50;99.90;;;;;;2602739;54;20104;31
2024/01/22 16:33:20;;;;;;;11.55;4.60;;;5.50;99.90;;;;;;2602948;54;20897;31
2024/01/22 16:35:57;;;;;;;11.25;4.18;;;5.40;99.90;;;;;;2621222;46;20035;31
2024/01/22 16:38:31;;;;;;;7.50;3.92;;;5.40;99.90;;;;;;2602733;54;20030;31
2024/01/22 16:41:12;;;;;;;10.82;4.93;;;5.40;99.90;;;;;;2620979;46;20077;31
2024/01/22 16:43:48;;;;;;;9.35;4.45;;;5.40;99.90;;;;;;2602755;54;20750;31
2024/01/22 16:46:23;;;;;;;11.55;4.68;;;5.40;99.90;;;;;;2621247;46;20026;31
2024/01/22 16:48:57;;;;;;;9.13;4.70;;;5.30;99.90;;;;;;2621203;46;19957;31
2024/01/22 16:51:32;;;;;;;11.65;4.95;;;5.30;99.90;;;;;;2701154;39;21553;31
2024/01/22 16:54:10;;;;;;;10.40;5.03;;;5.30;99.90;;;;;;2602675;54;20026;31
2024/01/22 16:56:47;;;;;;;11.05;4.90;;;5.30;99.90;;;;;;2621128;46;20115;31
2024/01/22 16:59:21;;;;;;;10.82;4.90;;;5.30;99.90;;;;;;2602626;54;20030;31
2024/01/22 17:01:56;;;;;;;11.50;4.60;;;5.30;99.90;;;;;;2621339;46;20037;31
2024/01/22 17:04:31;;;;;;;9.82;5.05;;;5.30;99.90;;;;;;2602522;54;20946;31
2024/01/22 17:07:07;;;;;;;10.88;5.45;;;5.30;99.90;;;;;;2602781;54;20938;31
2024/01/22 17:09:41;;;;;;;;;;;5.30;99.90;;;;;;2602826;54;20853;31
2024/01/22 17:12:20;;;;;;;13.93;5.75;;;5.30;99.90;;;;;;2602757;54;20641;31
2024/01/22 17:14:55;;;;;;;10.32;5.18;;;5.30;99.90;;;;;;2621020;47;20034;31
2024/01/22 17:17:36;;;;;;;11.95;5.40;;;5.30;99.90;;;;;;2602499;54;20034;31
2024/01/22 17:20:14;;;;;;;11.05;5.13;;;5.30;99.90;;;;;;2602572;54;20027;31
2024/01/22 17:22:50;;;;;;;11.15;5.55;;;5.20;99.90;;;;;;2700941;39;21629;31
2024/01/22 17:25:25;;;;;;;9.13;4.70;;;5.20;99.90;;;;;;2602615;54;20769;31
2024/01/22 17:28:03;;;;;;;10.40;5.20;;;5.20;99.90;;;;;;2602767;54;20897;31
2024/01/22 17:30:38;;;;;;;11.60;5.45;;;5.20;99.90;;;;;;2602644;54;20243;31
2024/01/22 17:33:22;;;;;;;8.95;4.47;;;5.10;99.90;;;;;;2602569;54;21047;31
2024/01/22 17:35:58;;;;;;;13.10;5.57;;;5.10;99.90;;;;;;2602439;54;21296;31
2024/01/22 17:38:35;;;;;;;9.30;4.63;;;5.10;99.90;;;;;;2602748;54;20837;31
2024/01/22 17:41:11;;;;;;;7.60;4.35;;;5.10;99.90;;;;;;2602565;54;21171;31
2024/01/22 17:43:51;;;;;;;6.75;4.20;;;5.10;99.90;;;;;;2602355;54;20037;31
2024/01/22 17:46:28;;;;;;;8.60;3.85;;;5.10;99.90;;;;;;2602433;54;20877;31
2024/01/22 17:49:04;;;;;;;5.70;3.40;;;5.10;99.90;;;;;;2602609;54;20860;31
2024/01/22 17:51:39;;;;;;;7.85;4.05;;;5.10;99.90;;;;;;2602431;54;20866;31
2024/01/22 17:54:15;;;;;;;7.50;4.33;;;5.10;99.90;;;;;;2602332;54;20037;31
2024/01/22 17:56:49;;;;;;;10.35;5.20;;;5.00;99.90;;;;;;2602643;54;21116;31
2024/01/22 17:59:29;;;;;;;11.90;5.72;;;5.00;99.90;;;;;;2620725;47;20058;31
2024/01/22 18:02:07;;;;;;;11.75;5.68;;;5.00;99.90;;;;;;2601802;54;20044;31
2024/01/22 18:04:42;;;;;;;9.00;4.87;;;5.00;99.90;;;;;;2620767;47;20933;31
2024/01/22 18:07:18;;;;;;;11.02;4.90;;;4.90;99.90;;;;;;2620902;47;22382;31
2024/01/22 18:09:54;;;;;;;13.60;5.00;;;4.90;99.90;;;;;;2621012;47;20037;31
2024/01/22 18:12:29;;;;;;;10.05;6.05;;;4.90;99.90;;;;;;2621595;46;21243;31
2024/01/22 18:15:09;;;;;;;11.40;6.10;;;4.90;99.90;;;;;;2602979;54;20038;31
2024/01/22 18:17:46;;;;;;;9.43;5.72;;;4.80;99.90;;;;;;2621651;46;21151;31
2024/01/22 18:20:35;;;;;;;9.10;5.43;;;4.80;99.90;;;;;;2602915;54;20030;31
2024/01/22 18:23:13;;;;;;;13.33;6.10;;;4.80;99.90;;;;;;2603097;54;20038;31
2024/01/22 18:25:54;;;;;;;11.75;5.00;;;4.80;99.90;;;;;;2603369;54;20226;31
2024/01/22 18:28:29;;;;;;;11.40;5.63;;;4.80;99.90;;;;;;2603093;54;20027;31
2024/01/22 18:31:08;;;;;;;10.45;5.40;;;4.80;99.90;;;;;;2603303;54;20030;31
2024/01/22 18:33:44;;;;;;;12.52;5.63;;;4.80;99.90;;;;;;2603413;54;20037;31
2024/01/22 18:36:21;;;;;;;10.80;5.00;;;4.70;99.90;;;;;;2603384;54;20038;31
2024/01/22 18:38:57;;;;;;;13.65;5.95;;;4.70;99.90;;;;;;2621804;46;20976;31
2024/01/22 18:41:35;;;;;;;12.40;6.55;;;4.60;99.90;;;;;;2603109;54;20077;31
2024/01/22 18:44:12;;;;;;;11.70;6.07;;;4.60;99.90;;;;;;2603347;54;20037;31
2024/01/22 18:46:54;;;;;;;16.83;6.60;;;4.60;99.90;;;;;;2621565;46;20027;31
2024/01/22 18:49:32;;;;;;;12.00;7.00;;;4.60;99.90;;;;;;2621685;46;20027;31
2024/01/22 18:52:09;;;;;;;14.20;6.05;;;4.60;99.90;;;;;;2603216;54;20241;31
2024/01/22 18:54:46;;;;;;;14.10;6.43;;;4.50;99.90;;;;;;2603091;54;20870;31
2024/01/22 18:57:23;;;;;;;11.75;6.20;;;4.50;99.90;;;;;;2603291;54;20968;31
2024/01/22 18:59:59;;;;;;;13.00;6.90;;;4.50;99.90;;;;;;2603256;54;20918;31
2024/01/22 19:02:39;;;;;;;13.25;6.97;;;4.50;99.90;;;;;;2603295;54;20878;31
2024/01/22 19:05:16;;;;;;;10.52;5.90;;;4.50;99.90;;;;;;2603013;54;20027;31
2024/01/22 19:07:54;;;;;;;13.70;6.78;;;4.50;99.90;;;;;;2621538;46;20033;31
2024/01/22 19:10:30;;;;;;;14.77;7.07;;;4.40;99.90;;;;;;2602848;54;20109;31
2024/01/22 19:13:08;;;;;;;10.55;7.00;;;4.40;99.90;;;;;;2603062;54;20064;31
2024/01/22 19:15:44;;;;;;;13.80;7.63;;;4.40;99.90;;;;;;2602997;54;20018;31
2024/01/22 19:18:22;;;;;;;16.45;7.55;;;4.40;99.90;;;;;;2603124;54;20050;31
2024/01/22 19:20:58;;;;;;;13.38;7.43;;;4.40;99.90;;;;;;2621239;46;20030;31
2024/01/22 19:23:33;;;;;;;17.08;7.93;;;4.30;99.90;;;;;;2602872;54;20049;31
2024/01/22 19:26:10;;;;;;;12.50;6.85;;;4.30;99.90;;;;;;2603052;54;20754;31
2024/01/22 19:28:46;;;;;;;16.70;7.70;;;4.30;99.90;;;;;;2603189;54;20938;31
2024/01/22 19:31:19;;;;;;;11.50;6.95;;;4.30;99.90;;;;;;2603101;54;21237;31
2024/01/22 19:33:57;;;;;;;14.13;7.15;;;4.30;99.90;;;;;;2602999;54;20038;31
2024/01/22 19:36:32;;;;;;;13.60;7.85;;;4.30;99.90;;;;;;2602972;54;20030;31
2024/01/22 19:39:06;;;;;;;16.80;7.53;;;4.30;99.90;;;;;;2602846;54;20027;31
2024/01/22 19:41:42;;;;;;;12.47;6.73;;;4.30;99.90;;;;;;2602935;54;20850;31
2024/01/22 19:44:18;;;;;;;;;;;4.30;99.90;;;;;;2603243;54;20053;31
2024/01/22 19:46:52;;;;;;;14.18;7.70;;;4.30;99.90;;;;;;2602783;54;20773;31
2024/01/22 19:49:30;;;;;;;14.43;7.82;;;4.30;99.90;;;;;;2603168;54;20883;31
2024/01/22 19:52:06;;;;;;;14.90;7.45;;;4.30;99.90;;;;;;2603121;54;20847;31
2024/01/22 19:54:42;;;;;;;14.07;7.50;;;4.30;99.90;;;;;;2603082;54;20073;31
2024/01/22 19:57:20;;;;;;;14.00;7.10;;;4.30;99.90;;;;;;2603014;54;21064;31
2024/01/22 19:59:54;;;;;;;14.00;7.17;;;4.30;99.90;;;;;;2602865;54;20095;31
2024/01/22 20:02:30;;;;;;;13.30;6.93;;;4.30;99.90;;;;;;2602972;54;20026;31
2024/01/22 20:05:09;;;;;;;13.73;6.80;;;4.30;99.90;;;;;;2602811;54;20030;31
2024/01/22 20:07:45;;;;;;;13.97;7.63;;;4.30;99.90;;;;;;2602843;54;20026;31
2024/01/22 20:10:24;;;;;;;;;;;4.30;99.90;;;;;;2603073;54;20026;31
2024/01/22 20:13:00;;;;;;;14.30;6.90;;;4.40;99.90;;;;;;2602772;54;19941;31
2024/01/22 20:15:42;;;;;;;13.10;5.97;;;4.40;99.90;;;;;;2603025;54;20737;31
2024/01/22 20:18:20;;;;;;;12.38;6.15;;;4.50;99.90;;;;;;2621361;46;20221;31
2024/01/22 20:21:03;;;;;;;12.02;6.55;;;4.50;99.90;;;;;;2602815;54;20027;31
2024/01/22 20:23:39;;;;;;;11.90;6.88;;;4.60;99.90;;;;;;2701325;39;22407;31
2024/01/22 20:26:36;;;;;;;11.85;6.70;;;4.60;99.90;;;;;;2602940;54;20896;31
2024/01/22 20:29:12;;;;;;;14.00;6.72;;;4.70;99.90;;;;;;2602779;54;20040;31
2024/01/22 20:31:53;;;;;;;11.30;6.32;;;4.70;99.90;;;;;;2602798;54;20026;31
2024/01/22 20:34:29;;;;;;;11.57;6.25;;;4.80;99.90;;;;;;2602568;54;20085;31
2024/01/22 20:37:07;;;;;;;13.15;7.28;;;4.80;99.90;;;;;;2602853;54;20031;31
2024/01/22 20:39:48;;;;;;;10.85;6.05;;;4.80;99.90;;;;;;2602733;54;20030;31
2024/01/22 20:42:24;;;;;;;11.90;6.00;;;4.80;99.90;;;;;;2602535;54;20140;31
2024/01/22 20:45:05;;;;;;;13.35;6.05;;;4.90;99.90;;;;;;2602829;54;20034;31
2024/01/22 20:47:42;;;;;;;13.83;6.97;;;4.90;99.90;;;;;;2602462;54;20086;31
2024/01/22 20:50:19;;;;;;;10.80;6.67;;;4.90;99.90;;;;;;2621520;46;20246;31
2024/01/22 20:53:06;;;;;;;10.45;6.05;;;4.90;99.90;;;;;;2602849;54;20981;31
2024/01/22 20:55:47;;;;;;;12.02;7.32;;;4.90;99.90;;;;;;2602676;54;20033;31
2024/01/22 20:58:24;;;;;;;15.10;6.00;;;5.00;99.90;;;;;;2602695;54;20856;31